Airfield :
LOGIN :

Register | Disclaimer

   EN    FR    IT 

 










Legend :    VFR   Marginal VFR   IFR   Intensive IFR   Very Intensive IFR
Visi :
Ceiling :
>= 8 km
>= 3000ft
5 to 8 km
1000 to 3000 ft
1500m to 5 km
500 to 1000 ft
800 to 1500m
200 to 500 ft
< 800m
< 200 ft
Symbols :   Thunderstorms  Fog  Heavy snow  Heavy precipitations  Wind > 20 kt
SIGMETs :     Misc.  Thunderstorms  Icing  Turbulence  Mountain Waves  Volcanic Ashes






- Airport Elevation : 209 ft
- IATA code : CLY


LFKC - Calvi

CURRENT METAR :
  • 040830Z AUTO 21010KT CAVOK 25/15 Q1005 TEMPO FEW045CB

EXPIRED METARs :
  • 040800Z AUTO 21013KT CAVOK 24/15 Q1005 NOSIG
  • 040730Z AUTO 17011KT 140V210 9999 FEW098 23/16 Q1005 NOSIG
  • 040700Z AUTO 19009KT 160V220 9999 BKN100 BKN210 21/16 Q1006 NOSIG
  • 040630Z AUTO 20009KT 9999 VCTS SCT100/// BKN230/// ///CB 19/15 Q1006 BECMG NSW FEW050
  • 040600Z AUTO 17010KT 9999 -TSRA FEW052/// SCT100/// BKN120/// ///CB 19/16 Q1006 BECMG NSW FEW050

TAF TAF LFKC
Valid from the 04 at 09:00 until the 05 at 09:00 UTC


040800Z 0409/0509 21012G25KT 9999 FEW050 TX29/0413Z TN18/0503Z
TEMPO 0409/0412 FEW045CB
BECMG 0415/0416 33005KT CAVOK
BECMG 0418/0420 17005KT
BECMG 0508/0509 36010KT
ATIS : +33 4 95 65 82 49



MET'MAP, your aeronautical weather chart ! - Copyright ORBIFLY December 2007 - Disclaimer

ORBIFLY MET'MAP TEAM :

Programming & Development : Alexandra Zaïnal
Concept & original design : Baudouin d'Aumeries
Assistance for programming : Marc-Olivier Méhu
Technical & hardware support : Manuel Goepfert

Contact : metmap@orbifly.com




SOURCES & CREDITS :

   NOAA